Time;durP1;ratioP1;P1;durP2;ratioP2;P2;SDS_P1;SDS_P2;PMS_P1;PMS_P2;Temp;Humidity;BMP_temperature;BMP_pressure;BME280_temperature;BME280_humidity;BME280_pressure;Samples;Min_cycle;Max_cycle;Signal;HPM_P1;HPM_P2
2023/07/25 00:01:09;;;;;;;6.80;3.95;;;12.80;99.90;;;;;;4897494;29;20040;-35
2023/07/25 00:03:35;;;;;;;7.22;4.13;;;12.80;99.90;;;;;;4894800;29;20135;-34
2023/07/25 00:06:04;;;;;;;4.57;3.95;;;12.80;99.90;;;;;;4896050;29;20406;-35
2023/07/25 00:08:31;;;;;;;9.25;4.70;;;12.80;99.90;;;;;;4890111;29;20388;-35
2023/07/25 00:10:57;;;;;;;7.03;4.38;;;12.70;99.90;;;;;;4894325;29;20485;-35
2023/07/25 00:13:23;;;;;;;8.00;5.10;;;12.70;99.90;;;;;;4894999;29;20032;-35
2023/07/25 00:15:52;;;;;;;11.98;4.85;;;12.70;99.90;;;;;;4895985;29;20423;-34
2023/07/25 00:18:18;;;;;;;10.73;4.78;;;12.70;99.90;;;;;;4897243;29;20126;-33
2023/07/25 00:20:44;;;;;;;7.07;4.20;;;12.70;99.90;;;;;;4901851;29;20443;-33
2023/07/25 00:23:09;;;;;;;8.90;4.60;;;12.70;99.90;;;;;;4895675;29;20041;-35
2023/07/25 00:25:35;;;;;;;11.57;4.78;;;12.80;99.90;;;;;;4887849;29;20514;-32
2023/07/25 00:28:01;;;;;;;7.78;4.75;;;12.70;99.90;;;;;;4888272;29;20044;-34
2023/07/25 00:30:26;;;;;;;6.60;4.68;;;12.80;99.90;;;;;;4892230;29;20100;-34
2023/07/25 00:32:52;;;;;;;8.38;4.40;;;12.80;99.90;;;;;;4895064;29;20037;-34
2023/07/25 00:35:18;;;;;;;5.53;4.28;;;12.80;99.90;;;;;;4896788;29;20040;-32
2023/07/25 00:37:44;;;;;;;9.25;4.70;;;12.80;99.90;;;;;;4896169;29;20538;-33
2023/07/25 00:40:10;;;;;;;6.10;3.75;;;12.80;99.90;;;;;;4895942;29;20080;-33
2023/07/25 00:42:36;;;;;;;7.72;4.70;;;12.80;99.90;;;;;;4895433;29;20049;-33
2023/07/25 00:45:01;;;;;;;8.18;4.68;;;12.80;99.90;;;;;;4908695;29;20525;-32
2023/07/25 00:47:27;;;;;;;8.30;4.53;;;12.80;99.90;;;;;;4899818;29;20474;-32
2023/07/25 00:49:54;;;;;;;8.38;4.65;;;12.80;99.90;;;;;;4903540;29;20040;-32
2023/07/25 00:52:20;;;;;;;7.07;4.60;;;12.80;99.90;;;;;;4895287;29;20108;-33
2023/07/25 00:54:50;;;;;;;7.80;4.63;;;12.80;99.90;;;;;;4904836;29;20268;-32
2023/07/25 00:57:18;;;;;;;7.00;5.00;;;12.70;99.90;;;;;;4889774;29;20048;-32
2023/07/25 00:59:44;;;;;;;8.70;4.97;;;12.60;99.90;;;;;;4895418;29;20036;-32
2023/07/25 01:02:12;;;;;;;7.45;4.82;;;12.60;99.90;;;;;;4900269;29;20054;-33
2023/07/25 01:04:39;;;;;;;10.15;5.72;;;12.60;99.90;;;;;;4908246;29;20052;-33
2023/07/25 01:07:06;;;;;;;8.25;5.20;;;12.60;99.90;;;;;;4904356;29;20397;-32
2023/07/25 01:09:40;;;;;;;12.98;5.35;;;12.50;99.90;;;;;;4900918;29;20423;-32
2023/07/25 01:12:07;;;;;;;7.70;5.65;;;12.50;99.90;;;;;;4903012;29;20040;-32
2023/07/25 01:14:34;;;;;;;8.60;5.80;;;12.40;99.90;;;;;;4895177;29;20043;-32
2023/07/25 01:17:08;;;;;;;9.07;5.15;;;12.40;99.90;;;;;;4895680;29;20111;-32
2023/07/25 01:19:35;;;;;;;6.35;5.03;;;12.30;99.90;;;;;;4895217;29;20084;-33
2023/07/25 01:22:01;;;;;;;9.52;5.40;;;12.30;99.90;;;;;;4895174;29;20043;-34
2023/07/25 01:24:27;;;;;;;7.90;4.93;;;12.20;99.90;;;;;;4894733;29;20462;-32
2023/07/25 01:26:53;;;;;;;9.32;5.60;;;12.20;99.90;;;;;;4895720;29;20040;-31
2023/07/25 01:29:19;;;;;;;7.82;5.25;;;12.20;99.90;;;;;;4895996;29;20049;-32
2023/07/25 01:31:44;;;;;;;8.93;5.00;;;12.20;99.90;;;;;;4895509;29;20040;-32
2023/07/25 01:34:10;;;;;;;8.10;5.13;;;12.20;99.90;;;;;;4895790;29;20036;-32
2023/07/25 01:36:36;;;;;;;10.35;5.80;;;12.10;99.90;;;;;;4895646;29;20087;-32
2023/07/25 01:39:01;;;;;;;8.50;6.40;;;12.10;99.90;;;;;;4895621;29;20044;-32
2023/07/25 01:41:27;;;;;;;6.05;5.10;;;12.10;99.90;;;;;;4878875;29;20119;-32
2023/07/25 01:43:53;;;;;;;10.18;5.15;;;12.10;99.90;;;;;;4878689;29;20623;-32
2023/07/25 01:46:19;;;;;;;7.85;4.68;;;12.10;99.90;;;;;;4895153;29;20045;-32
2023/07/25 01:48:44;;;;;;;8.32;5.18;;;12.00;99.90;;;;;;4895427;29;20045;-32
2023/07/25 01:51:10;;;;;;;9.38;5.20;;;12.00;99.90;;;;;;4895059;29;20045;-32
2023/07/25 01:53:36;;;;;;;8.35;5.05;;;11.90;99.90;;;;;;4895146;29;20037;-32
2023/07/25 01:56:02;;;;;;;6.90;5.32;;;12.00;99.90;;;;;;4895453;29;20036;-32
2023/07/25 01:58:27;;;;;;;10.15;4.68;;;11.90;99.90;;;;;;4895155;29;20434;-32
2023/07/25 02:00:57;;;;;;;8.77;5.35;;;11.90;99.90;;;;;;4895330;29;20074;-32
2023/07/25 02:03:23;;;;;;;8.82;5.38;;;11.90;99.90;;;;;;4895327;29;20052;-32
2023/07/25 02:05:50;;;;;;;11.65;5.35;;;11.90;99.90;;;;;;4895284;29;20036;-32
2023/07/25 02:08:16;;;;;;;9.77;5.30;;;11.90;99.90;;;;;;4894507;29;20044;-32
2023/07/25 02:10:42;;;;;;;13.00;5.50;;;11.80;99.90;;;;;;4894141;29;20099;-31
2023/07/25 02:13:08;;;;;;;13.15;5.80;;;11.90;99.90;;;;;;4895028;29;20076;-32
2023/07/25 02:15:35;;;;;;;8.18;5.30;;;11.90;99.90;;;;;;4878115;29;20342;-32
2023/07/25 02:18:02;;;;;;;8.70;5.00;;;11.90;99.90;;;;;;4894736;29;20048;-32
2023/07/25 02:20:31;;;;;;;7.70;5.47;;;11.90;99.90;;;;;;4894356;29;20080;-32
2023/07/25 02:22:57;;;;;;;12.15;6.18;;;12.00;99.90;;;;;;4894963;29;20049;-32
2023/07/25 02:25:28;;;;;;;7.88;4.88;;;12.00;99.90;;;;;;4894450;29;20044;-34
2023/07/25 02:27:53;;;;;;;10.25;6.30;;;12.00;99.90;;;;;;4895990;29;20041;-34
2023/07/25 02:30:20;;;;;;;8.57;4.95;;;12.00;99.90;;;;;;4876895;29;20052;-33
2023/07/25 02:32:46;;;;;;;7.10;4.97;;;12.00;99.90;;;;;;4881958;29;20364;-33
2023/07/25 02:35:14;;;;;;;10.07;4.68;;;12.00;99.90;;;;;;4899417;29;20039;-34
2023/07/25 02:37:40;;;;;;;7.13;4.60;;;12.10;99.90;;;;;;4893552;29;20036;-34
2023/07/25 02:40:06;;;;;;;7.43;4.70;;;12.10;99.90;;;;;;4902268;29;20123;-34
2023/07/25 02:42:32;;;;;;;6.72;5.00;;;12.10;99.90;;;;;;4878252;29;20059;-33
2023/07/25 02:44:58;;;;;;;7.38;4.78;;;12.20;99.90;;;;;;4900326;29;20498;-33
2023/07/25 02:47:24;;;;;;;9.23;5.15;;;12.20;99.90;;;;;;4896705;29;20041;-34
2023/07/25 02:49:49;;;;;;;9.23;5.15;;;12.20;99.90;;;;;;4901503;29;20132;-33
2023/07/25 02:52:15;;;;;;;10.55;5.03;;;12.20;99.90;;;;;;4898432;29;20039;-32
2023/07/25 02:54:41;;;;;;;8.70;5.03;;;12.20;99.90;;;;;;4893587;29;20033;-33
2023/07/25 02:57:06;;;;;;;6.95;4.70;;;12.10;99.90;;;;;;4894135;29;20044;-33
2023/07/25 02:59:32;;;;;;;7.72;4.60;;;12.10;99.90;;;;;;4896683;29;20059;-34
2023/07/25 03:01:58;;;;;;;9.90;5.20;;;12.10;99.90;;;;;;4899866;29;20037;-33
2023/07/25 03:04:24;;;;;;;7.30;4.60;;;12.10;99.90;;;;;;4894175;29;20069;-33
2023/07/25 03:06:50;;;;;;;7.63;4.72;;;12.10;99.90;;;;;;4878569;29;20518;-33
2023/07/25 03:09:15;;;;;;;7.82;5.18;;;12.10;99.90;;;;;;4906461;29;20487;-33
2023/07/25 03:11:41;;;;;;;10.75;4.95;;;12.10;99.90;;;;;;4880132;29;20563;-33
2023/07/25 03:14:07;;;;;;;8.48;5.13;;;12.20;99.90;;;;;;4893773;29;20297;-34
2023/07/25 03:16:32;;;;;;;9.35;5.38;;;12.20;99.90;;;;;;4893151;29;20491;-34
2023/07/25 03:18:58;;;;;;;11.43;5.38;;;12.20;99.90;;;;;;4893650;29;20071;-33
2023/07/25 03:21:24;;;;;;;9.18;5.03;;;12.10;99.90;;;;;;4894913;29;20558;-33
2023/07/25 03:23:49;;;;;;;10.35;5.13;;;12.20;99.90;;;;;;4898900;29;20622;-34
2023/07/25 03:26:15;;;;;;;11.32;5.28;;;12.20;99.90;;;;;;4903617;29;20075;-34
2023/07/25 03:28:41;;;;;;;8.63;4.75;;;12.20;99.90;;;;;;4897688;29;20053;-33
2023/07/25 03:31:07;;;;;;;8.25;5.05;;;12.20;99.90;;;;;;4896035;29;20047;-34
2023/07/25 03:33:32;;;;;;;7.22;4.50;;;12.10;99.90;;;;;;4891435;29;20767;-33
2023/07/25 03:35:58;;;;;;;7.75;5.03;;;12.10;99.90;;;;;;4891679;29;20033;-34
2023/07/25 03:38:24;;;;;;;8.77;5.38;;;12.10;99.90;;;;;;4894690;29;20123;-33
2023/07/25 03:40:49;;;;;;;7.85;4.50;;;12.10;99.90;;;;;;4896068;29;20304;-34
2023/07/25 03:43:15;;;;;;;6.97;4.38;;;12.10;99.90;;;;;;4884403;29;20120;-33
2023/07/25 03:45:41;;;;;;;8.57;4.88;;;12.10;99.90;;;;;;4896061;29;20076;-33
2023/07/25 03:48:08;;;;;;;9.35;4.80;;;12.10;99.90;;;;;;4886533;29;20495;-33
2023/07/25 03:50:33;;;;;;;8.15;4.72;;;12.10;99.90;;;;;;4893331;29;20041;-34
2023/07/25 03:52:59;;;;;;;7.53;4.35;;;12.00;99.90;;;;;;4879974;29;20494;-33
2023/07/25 03:55:25;;;;;;;9.60;4.60;;;12.00;99.90;;;;;;4897144;29;20466;-33
2023/07/25 03:57:51;;;;;;;7.70;4.78;;;12.00;99.90;;;;;;4908428;29;20068;-34
2023/07/25 04:00:17;;;;;;;7.85;4.50;;;12.00;99.90;;;;;;4902018;29;20069;-33
2023/07/25 04:02:43;;;;;;;6.90;5.05;;;12.00;99.90;;;;;;4896414;29;20111;-33
2023/07/25 04:05:09;;;;;;;7.07;4.55;;;12.00;99.90;;;;;;4901623;29;20044;-34
2023/07/25 04:07:35;;;;;;;8.23;4.75;;;12.00;99.90;;;;;;4896702;29;20040;-34
2023/07/25 04:10:01;;;;;;;8.60;4.63;;;12.00;99.90;;;;;;4897125;29;20123;-33
2023/07/25 04:12:27;;;;;;;11.10;5.45;;;12.10;99.90;;;;;;4895772;29;20045;-32
2023/07/25 04:14:53;;;;;;;7.18;4.25;;;12.10;99.90;;;;;;4897456;29;20041;-34
2023/07/25 04:17:18;;;;;;;6.55;4.60;;;12.20;99.90;;;;;;4904443;29;20036;-34
2023/07/25 04:19:44;;;;;;;5.05;4.32;;;12.30;99.90;;;;;;4896046;29;20527;-34
2023/07/25 04:22:10;;;;;;;11.98;5.15;;;12.40;99.90;;;;;;4898333;29;20029;-34
2023/07/25 04:24:35;;;;;;;10.48;5.28;;;12.50;99.90;;;;;;4903334;29;20082;-33
2023/07/25 04:27:01;;;;;;;10.05;4.53;;;12.50;99.90;;;;;;4895341;29;20036;-34
2023/07/25 04:29:27;;;;;;;8.88;5.18;;;12.60;99.90;;;;;;4900056;29;20842;-34
2023/07/25 04:31:52;;;;;;;8.98;4.93;;;12.60;99.90;;;;;;4895810;29;20068;-33
2023/07/25 04:34:18;;;;;;;8.82;5.18;;;12.70;99.90;;;;;;4894912;29;20390;-34
2023/07/25 04:36:44;;;;;;;10.70;5.25;;;12.80;99.90;;;;;;4895570;29;20033;-37
2023/07/25 04:39:09;;;;;;;11.23;4.97;;;12.80;99.90;;;;;;4894299;29;20040;-36
2023/07/25 04:41:35;;;;;;;9.75;5.13;;;12.90;99.90;;;;;;4895375;29;20239;-36
2023/07/25 04:44:01;;;;;;;10.07;4.82;;;12.90;99.90;;;;;;4897020;29;20053;-36
2023/07/25 04:46:28;;;;;;;9.13;5.00;;;13.00;99.90;;;;;;4895970;29;20052;-34
2023/07/25 04:48:54;;;;;;;13.00;5.22;;;13.10;99.90;;;;;;4896541;29;20037;-34
2023/07/25 04:51:20;;;;;;;7.05;4.78;;;13.10;99.90;;;;;;4895505;29;20407;-34
2023/07/25 04:53:45;;;;;;;8.20;4.63;;;13.20;99.90;;;;;;4891888;29;20036;-34
2023/07/25 04:56:11;;;;;;;9.45;5.13;;;13.20;99.90;;;;;;4894709;29;20117;-35
2023/07/25 04:58:38;;;;;;;9.85;4.70;;;13.30;99.90;;;;;;4902561;29;20080;-35
2023/07/25 05:01:04;;;;;;;7.38;4.75;;;13.30;99.90;;;;;;4893357;29;20044;-35
2023/07/25 05:03:30;;;;;;;5.85;3.85;;;13.40;99.90;;;;;;4890574;29;20045;-35
2023/07/25 05:05:56;;;;;;;7.10;4.53;;;13.40;99.90;;;;;;4882280;29;20041;-34
2023/07/25 05:08:22;;;;;;;6.60;4.43;;;13.40;99.90;;;;;;4894498;29;20044;-35
2023/07/25 05:10:50;;;;;;;7.53;5.30;;;13.50;99.90;;;;;;4891542;29;20531;-34
2023/07/25 05:13:16;;;;;;;9.82;4.68;;;13.60;99.90;;;;;;4890891;29;20085;-35
2023/07/25 05:15:42;;;;;;;9.15;4.22;;;13.60;99.90;;;;;;4899187;29;20044;-35
2023/07/25 05:18:07;;;;;;;6.63;4.35;;;13.70;99.90;;;;;;4895772;29;20069;-35
2023/07/25 05:20:33;;;;;;;7.57;4.10;;;13.70;99.90;;;;;;4904013;29;20438;-35
2023/07/25 05:22:58;;;;;;;6.82;3.80;;;13.80;99.90;;;;;;4885857;29;20502;-34
2023/07/25 05:25:24;;;;;;;7.60;4.00;;;13.90;99.90;;;;;;4894270;29;20266;-35
2023/07/25 05:27:50;;;;;;;8.50;4.32;;;13.90;99.90;;;;;;4890765;29;20037;-35
2023/07/25 05:30:16;;;;;;;9.57;4.25;;;13.90;99.90;;;;;;4892503;29;20043;-35
2023/07/25 05:32:42;;;;;;;8.95;4.20;;;14.00;99.90;;;;;;4887356;29;20051;-35
2023/07/25 05:35:07;;;;;;;6.50;3.92;;;14.00;99.90;;;;;;4874259;29;20394;-35
2023/07/25 05:37:38;;;;;;;7.68;3.97;;;14.10;99.90;;;;;;4895282;29;20044;-35
2023/07/25 05:40:05;;;;;;;5.53;3.15;;;14.20;99.90;;;;;;4876220;29;20056;-35
2023/07/25 05:42:31;;;;;;;8.18;3.58;;;14.20;99.90;;;;;;4895293;29;20048;-35
2023/07/25 05:44:58;;;;;;;8.90;4.30;;;14.20;99.90;;;;;;4892411;29;20040;-35
2023/07/25 05:47:24;;;;;;;7.10;3.55;;;14.30;99.90;;;;;;4870745;29;20068;-35
2023/07/25 05:49:50;;;;;;;8.23;3.60;;;14.40;99.90;;;;;;4895247;29;20084;-36
2023/07/25 05:52:16;;;;;;;9.38;3.35;;;14.50;99.90;;;;;;4893716;29;20036;-35
2023/07/25 05:54:43;;;;;;;6.05;3.15;;;14.50;99.90;;;;;;4867667;29;20095;-35
2023/07/25 05:57:09;;;;;;;10.65;3.50;;;14.60;99.90;;;;;;4891035;29;20072;-35
2023/07/25 05:59:34;;;;;;;8.55;3.15;;;14.80;99.90;;;;;;4892671;29;20414;-35
2023/07/25 06:02:00;;;;;;;4.97;3.05;;;14.80;99.90;;;;;;4889409;29;20335;-35
2023/07/25 06:04:26;;;;;;;8.82;3.58;;;14.90;99.90;;;;;;4885537;29;20101;-36
2023/07/25 06:06:51;;;;;;;6.43;3.13;;;15.00;99.90;;;;;;4890535;29;20047;-35
2023/07/25 06:09:17;;;;;;;6.50;3.40;;;15.10;99.90;;;;;;4897030;29;20087;-35
2023/07/25 06:11:43;;;;;;;6.65;2.97;;;15.10;99.90;;;;;;4873376;29;20040;-35
2023/07/25 06:14:08;;;;;;;6.03;2.88;;;15.20;99.90;;;;;;4892633;29;20029;-35
2023/07/25 06:16:34;;;;;;;7.72;3.00;;;15.20;99.90;;;;;;4886550;29;20045;-35
2023/07/25 06:19:00;;;;;;;5.55;2.70;;;15.30;99.90;;;;;;4886397;29;20487;-34
2023/07/25 06:21:26;;;;;;;8.90;3.20;;;15.30;99.90;;;;;;4886781;29;20037;-35
2023/07/25 06:23:52;;;;;;;10.88;2.95;;;15.40;99.90;;;;;;4878861;29;20041;-35
2023/07/25 06:26:17;;;;;;;10.40;3.30;;;15.50;99.90;;;;;;4868251;29;20041;-35
2023/07/25 06:28:44;;;;;;;8.52;2.53;;;15.50;99.90;;;;;;4861858;29;20048;-35
2023/07/25 06:31:10;;;;;;;7.50;2.53;;;15.40;99.90;;;;;;4883907;29;20072;-35
2023/07/25 06:33:35;;;;;;;5.28;2.15;;;15.50;99.90;;;;;;4876489;29;20072;-35
2023/07/25 06:36:01;;;;;;;5.75;2.65;;;15.50;99.90;;;;;;4864596;29;20051;-35
2023/07/25 06:38:27;;;;;;;4.75;2.50;;;15.50;99.90;;;;;;4883209;29;20076;-35
2023/07/25 06:40:52;;;;;;;8.77;3.10;;;15.40;99.90;;;;;;4883664;29;20040;-35
2023/07/25 06:43:18;;;;;;;7.03;2.20;;;15.50;99.90;;;;;;4878812;29;20040;-35
2023/07/25 06:45:44;;;;;;;9.05;2.83;;;15.50;99.90;;;;;;4887446;29;20041;-35
2023/07/25 06:48:10;;;;;;;2.97;2.13;;;15.60;99.90;;;;;;4885529;29;20033;-36
2023/07/25 06:50:36;;;;;;;9.70;2.50;;;15.70;99.90;;;;;;4883731;29;20048;-37
2023/07/25 06:53:01;;;;;;;4.78;1.90;;;15.70;99.90;;;;;;4882284;29;20045;-38
2023/07/25 06:55:27;;;;;;;6.05;2.10;;;15.80;99.90;;;;;;4882309;29;20146;-36
2023/07/25 06:57:53;;;;;;;11.65;2.47;;;15.80;99.90;;;;;;4886010;29;20233;-36
2023/07/25 07:00:18;;;;;;;4.88;2.30;;;15.80;99.90;;;;;;4886197;29;20051;-36
2023/07/25 07:02:44;;;;;;;6.25;1.85;;;15.80;99.90;;;;;;4884520;29;20052;-36
2023/07/25 07:05:10;;;;;;;6.32;1.70;;;15.90;99.90;;;;;;4878691;29;20044;-36
2023/07/25 07:07:40;;;;;;;8.93;2.28;;;16.00;99.90;;;;;;4893842;29;20044;-36
2023/07/25 07:10:06;;;;;;;5.95;1.75;;;16.00;99.90;;;;;;4888997;29;20053;-39
2023/07/25 07:12:31;;;;;;;7.88;2.38;;;16.10;99.90;;;;;;4887532;29;20051;-34
2023/07/25 07:14:57;;;;;;;5.65;1.73;;;16.20;99.90;;;;;;4893862;29;20047;-35
2023/07/25 07:17:23;;;;;;;5.18;1.70;;;16.20;99.90;;;;;;4885964;29;20056;-35
2023/07/25 07:19:48;;;;;;;5.32;1.95;;;16.30;99.90;;;;;;4895786;29;20048;-35
2023/07/25 07:22:14;;;;;;;2.97;1.70;;;16.40;99.90;;;;;;4879004;29;20139;-35
2023/07/25 07:24:40;;;;;;;2.30;1.40;;;16.50;99.90;;;;;;4897383;29;20041;-35
2023/07/25 07:27:06;;;;;;;4.63;1.83;;;16.50;99.90;;;;;;4880487;29;20498;-35
2023/07/25 07:29:32;;;;;;;3.10;1.38;;;16.50;99.90;;;;;;4895489;29;20060;-35
2023/07/25 07:31:59;;;;;;;6.60;1.95;;;16.60;99.90;;;;;;4895501;29;20291;-35
2023/07/25 07:34:25;;;;;;;5.75;1.85;;;16.70;99.90;;;;;;4893880;29;20059;-35
2023/07/25 07:36:51;;;;;;;5.72;1.40;;;16.80;99.90;;;;;;4896682;29;20402;-35
2023/07/25 07:39:17;;;;;;;4.05;1.40;;;16.90;99.90;;;;;;4897693;29;20566;-35
2023/07/25 07:41:42;;;;;;;3.72;1.05;;;17.00;99.90;;;;;;4900762;29;20040;-35
2023/07/25 07:44:08;;;;;;;4.82;1.63;;;17.20;99.90;;;;;;4896220;29;20032;-35
2023/07/25 07:46:35;;;;;;;6.68;1.52;;;17.20;99.90;;;;;;4893841;29;20124;-35
2023/07/25 07:49:00;;;;;;;5.07;1.45;;;17.30;99.90;;;;;;4903471;29;20037;-35
2023/07/25 07:51:26;;;;;;;4.68;1.27;;;17.40;99.90;;;;;;4898776;29;20055;-35
2023/07/25 07:53:52;;;;;;;5.18;1.33;;;17.50;99.90;;;;;;4902559;29;20403;-35
2023/07/25 07:56:18;;;;;;;5.38;1.10;;;17.40;99.90;;;;;;4896295;29;20043;-35
2023/07/25 07:58:44;;;;;;;4.00;1.00;;;17.50;99.90;;;;;;4903338;29;20032;-35
2023/07/25 08:01:18;;;;;;;5.80;1.05;;;17.60;99.90;;;;;;4863128;29;20045;-35
2023/07/25 08:03:44;;;;;;;;;;;17.70;99.90;;;;;;4896509;29;20060;-35
2023/07/25 08:06:10;;;;;;;6.90;1.42;;;17.80;99.90;;;;;;4895267;29;19926;-35
2023/07/25 08:08:35;;;;;;;2.65;1.45;;;18.00;99.90;;;;;;4896473;29;20045;-37
2023/07/25 08:11:01;;;;;;;2.22;0.93;;;18.20;99.90;;;;;;4895927;29;20044;-36
2023/07/25 08:13:27;;;;;;;3.05;1.00;;;18.40;99.90;;;;;;4891516;29;20049;-35
2023/07/25 08:15:52;;;;;;;3.95;1.30;;;18.60;99.90;;;;;;4895789;29;20479;-34
2023/07/25 08:18:21;;;;;;;2.72;0.98;;;18.80;99.90;;;;;;4895497;29;20100;-35
2023/07/25 08:20:47;;;;;;;2.25;1.00;;;18.90;99.90;;;;;;4902533;29;20048;-35
2023/07/25 08:23:13;;;;;;;3.22;0.93;;;19.00;99.90;;;;;;4895433;29;20072;-35
2023/07/25 08:25:39;;;;;;;3.47;1.10;;;19.20;99.90;;;;;;4896062;29;20076;-35
2023/07/25 08:28:05;;;;;;;2.05;0.90;;;19.20;99.90;;;;;;4895283;29;20037;-34
2023/07/25 08:30:31;;;;;;;2.78;0.80;;;19.20;99.90;;;;;;4883049;29;20048;-35
2023/07/25 08:32:57;;;;;;;4.03;1.08;;;19.30;99.90;;;;;;4895098;29;20116;-35
2023/07/25 08:35:23;;;;;;;4.75;1.02;;;19.40;99.90;;;;;;4892850;29;20040;-35
2023/07/25 08:37:49;;;;;;;2.92;1.00;;;19.40;99.90;;;;;;4894584;29;20040;-35
2023/07/25 08:40:15;;;;;;;2.90;1.00;;;19.40;99.90;;;;;;4899244;29;20127;-35
2023/07/25 08:42:43;;;;;;;2.30;1.20;;;19.40;99.90;;;;;;4883234;29;20144;-35
2023/07/25 08:45:09;;;;;;;4.18;0.90;;;19.30;99.90;;;;;;4890626;29;20084;-35
2023/07/25 08:47:39;;;;;;;2.80;0.90;;;19.50;99.90;;;;;;4864244;29;20467;-35
2023/07/25 08:50:13;;;;;;;3.78;0.93;;;19.80;99.90;;;;;;4894770;29;20036;-35
2023/07/25 08:52:40;;;;;;;3.00;1.13;;;20.10;99.90;;;;;;4877325;29;20044;-35
2023/07/25 08:55:07;;;;;;;2.75;1.15;;;20.00;99.90;;;;;;4887680;29;20044;-35
2023/07/25 08:57:33;;;;;;;5.57;1.10;;;19.90;99.90;;;;;;4894334;29;20041;-35
2023/07/25 08:59:59;;;;;;;2.88;0.90;;;19.90;99.90;;;;;;4894314;29;20044;-35
2023/07/25 09:02:26;;;;;;;6.63;1.30;;;19.60;99.90;;;;;;4894144;29;20164;-35
2023/07/25 09:04:53;;;;;;;2.33;0.80;;;19.40;99.90;;;;;;4893671;29;20044;-35
2023/07/25 09:07:18;;;;;;;3.17;0.88;;;19.60;99.90;;;;;;4894293;29;20583;-35
2023/07/25 09:09:44;;;;;;;2.35;1.08;;;19.90;99.90;;;;;;4889567;29;20243;-34
2023/07/25 09:12:10;;;;;;;4.60;1.25;;;20.30;99.90;;;;;;4893178;29;20032;-34
2023/07/25 09:14:36;;;;;;;2.65;0.98;;;20.70;99.90;;;;;;4894141;29;20111;-35
2023/07/25 09:17:05;;;;;;;3.30;0.93;;;20.80;99.90;;;;;;4895103;29;20100;-35
2023/07/25 09:19:31;;;;;;;4.25;0.90;;;21.10;99.90;;;;;;4895979;29;20542;-35
2023/07/25 09:21:58;;;;;;;1.52;1.05;;;21.30;99.90;;;;;;4896453;29;20053;-35
2023/07/25 09:24:35;;;;;;;5.15;1.20;;;21.20;99.90;;;;;;4904992;29;20096;-35
2023/07/25 09:27:01;;;;;;;3.25;0.90;;;21.00;99.10;;;;;;4871930;29;20049;-35
2023/07/25 09:29:30;;;;;;;2.28;0.75;;;20.60;99.90;;;;;;4889648;29;20117;-34
2023/07/25 09:31:57;;;;;;;4.53;1.00;;;20.20;99.60;;;;;;4894070;29;20040;-35
2023/07/25 09:34:23;;;;;;;5.22;1.70;;;19.90;99.90;;;;;;4890960;29;20530;-35
2023/07/25 09:36:49;;;;;;;2.00;1.10;;;20.20;99.90;;;;;;4893902;29;20384;-35
2023/07/25 09:39:16;;;;;;;4.13;1.52;;;20.50;99.90;;;;;;4893647;29;20143;-35
2023/07/25 09:41:45;;;;;;;3.08;1.10;;;20.90;99.90;;;;;;4898701;29;20051;-35
2023/07/25 09:44:11;;;;;;;2.28;0.80;;;21.40;99.90;;;;;;4892332;29;20047;-35
2023/07/25 09:46:37;;;;;;;4.25;1.20;;;21.30;99.90;;;;;;4892197;29;20045;-36
2023/07/25 09:49:04;;;;;;;5.10;1.08;;;21.00;99.10;;;;;;4893401;29;20033;-35
2023/07/25 09:51:30;;;;;;;2.70;1.00;;;20.70;98.40;;;;;;4888037;29;20073;-36
2023/07/25 09:53:55;;;;;;;2.05;0.80;;;20.50;98.00;;;;;;4893745;29;20092;-35
2023/07/25 09:56:26;;;;;;;2.90;1.13;;;20.40;97.90;;;;;;4893215;29;20033;-34
2023/07/25 09:58:52;;;;;;;2.35;0.90;;;20.40;97.50;;;;;;4887246;29;20091;-34
2023/07/25 10:01:18;;;;;;;4.30;1.00;;;20.70;97.60;;;;;;4889502;29;20045;-36
2023/07/25 10:03:45;;;;;;;3.53;0.90;;;20.90;97.20;;;;;;4891660;29;20051;-36
2023/07/25 10:06:14;;;;;;;3.50;0.80;;;21.30;96.60;;;;;;4893031;29;20036;-36
2023/07/25 10:08:43;;;;;;;2.53;0.90;;;21.60;94.90;;;;;;4890980;29;20055;-36
2023/07/25 10:11:12;;;;;;;3.10;0.73;;;22.20;94.50;;;;;;4893679;29;20160;-34
2023/07/25 10:13:40;;;;;;;3.70;1.00;;;22.50;94.10;;;;;;4894461;29;20180;-34
2023/07/25 10:16:08;;;;;;;2.20;0.70;;;22.50;93.10;;;;;;4905004;29;20482;-31
2023/07/25 10:18:34;;;;;;;2.53;0.73;;;22.10;91.80;;;;;;4913424;29;20052;-34
2023/07/25 10:21:00;;;;;;;2.85;0.95;;;22.30;91.10;;;;;;4913217;29;20048;-33
2023/07/25 10:23:31;;;;;;;1.98;0.63;;;22.70;90.30;;;;;;4913552;29;20043;-34
2023/07/25 10:26:09;;;;;;;4.05;0.80;;;23.10;85.30;;;;;;4913012;29;20537;-33
2023/07/25 10:28:34;;;;;;;1.33;0.63;;;23.60;84.80;;;;;;4913204;29;20394;-33
2023/07/25 10:31:00;;;;;;;2.15;0.70;;;23.60;78.60;;;;;;4912444;29;20048;-34
2023/07/25 10:33:26;;;;;;;1.40;0.70;;;23.60;78.30;;;;;;4913542;29;20036;-34
2023/07/25 10:35:52;;;;;;;2.45;0.60;;;23.70;78.50;;;;;;4910419;29;20025;-31
2023/07/25 10:38:43;;;;;;;2.38;0.55;;;23.10;76.60;;;;;;4877822;29;20044;-32
2023/07/25 10:41:08;;;;;;;2.45;1.00;;;22.70;73.70;;;;;;4894446;29;20465;-31
2023/07/25 10:43:46;;;;;;;2.25;0.63;;;23.00;76.60;;;;;;4877156;29;20128;-31
2023/07/25 10:46:22;;;;;;;3.47;0.80;;;22.80;71.50;;;;;;4894449;29;20048;-31
2023/07/25 10:48:48;;;;;;;1.50;0.70;;;22.70;68.80;;;;;;4877494;29;20108;-32
2023/07/25 10:51:16;;;;;;;3.60;0.80;;;22.40;70.80;;;;;;4907603;29;20044;-31
2023/07/25 10:54:10;;;;;;;2.55;0.80;;;22.10;70.80;;;;;;4894108;29;20044;-31
2023/07/25 10:56:38;;;;;;;1.77;0.73;;;22.10;73.00;;;;;;4894122;29;20041;-31
2023/07/25 10:59:12;;;;;;;3.50;0.90;;;22.50;73.40;;;;;;4893997;29;20051;-31
2023/07/25 11:01:47;;;;;;;2.55;0.60;;;23.00;73.10;;;;;;4886178;29;20591;-34
2023/07/25 11:04:20;;;;;;;2.65;0.90;;;23.40;72.00;;;;;;4863583;29;20080;-34
2023/07/25 11:06:49;;;;;;;1.67;0.85;;;23.20;71.40;;;;;;4882903;29;20045;-34
2023/07/25 11:09:15;;;;;;;1.83;0.70;;;22.90;73.70;;;;;;4864243;29;20437;-34
2023/07/25 11:11:45;;;;;;;0.98;0.70;;;22.60;74.30;;;;;;4882265;29;20040;-34
2023/07/25 11:14:14;;;;;;;5.47;1.08;;;22.30;73.50;;;;;;4879887;29;20036;-34
2023/07/25 11:16:41;;;;;;;2.50;1.00;;;22.10;74.40;;;;;;4882860;29;20093;-34
2023/07/25 11:19:09;;;;;;;3.13;1.10;;;22.60;76.40;;;;;;4865682;29;20037;-34
2023/07/25 11:21:45;;;;;;;3.60;1.05;;;23.00;77.30;;;;;;4880283;29;20092;-34
2023/07/25 11:24:12;;;;;;;3.85;1.00;;;23.40;72.60;;;;;;4880105;29;20041;-35
2023/07/25 11:26:38;;;;;;;2.33;0.93;;;23.90;76.80;;;;;;4877360;29;20056;-35
2023/07/25 11:29:06;;;;;;;2.30;1.00;;;24.30;77.00;;;;;;4886518;29;20507;-35
2023/07/25 11:31:32;;;;;;;5.47;1.13;;;24.10;72.20;;;;;;4880233;29;20052;-35
2023/07/25 11:34:11;;;;;;;2.85;1.00;;;23.70;69.70;;;;;;4878377;29;20120;-35
2023/07/25 11:36:41;;;;;;;2.15;0.90;;;23.60;70.20;;;;;;4883130;29;20487;-35
2023/07/25 11:39:08;;;;;;;1.63;0.80;;;23.80;71.90;;;;;;4887758;29;20414;-35
2023/07/25 11:41:38;;;;;;;2.70;0.90;;;24.10;72.40;;;;;;4881260;29;20079;-35
2023/07/25 11:44:16;;;;;;;1.60;0.60;;;24.70;71.60;;;;;;4882110;29;20135;-35
2023/07/25 11:46:49;;;;;;;2.15;1.00;;;25.20;67.90;;;;;;4899337;29;20051;-35
2023/07/25 11:49:16;;;;;;;2.00;0.70;;;25.30;67.00;;;;;;4882999;29;20491;-35
2023/07/25 11:51:42;;;;;;;1.67;0.70;;;25.70;67.00;;;;;;4892736;29;20044;-35
2023/07/25 11:54:09;;;;;;;2.35;0.80;;;25.80;64.70;;;;;;4862668;29;20070;-35
2023/07/25 11:56:36;;;;;;;3.22;0.80;;;25.50;64.10;;;;;;4897114;29;20494;-35
2023/07/25 11:59:03;;;;;;;1.75;0.90;;;25.30;62.70;;;;;;4891376;29;20044;-35
2023/07/25 12:01:31;;;;;;;2.08;1.00;;;25.00;63.40;;;;;;4881458;29;20048;-35
2023/07/25 12:04:00;;;;;;;2.10;0.80;;;25.10;63.20;;;;;;4896799;29;20092;-35
2023/07/25 12:06:30;;;;;;;1.33;0.90;;;24.70;64.10;;;;;;4893904;29;20040;-35
2023/07/25 12:08:56;;;;;;;1.95;0.88;;;25.00;65.70;;;;;;4861668;29;20037;-35
2023/07/25 12:11:22;;;;;;;3.10;1.08;;;25.40;67.00;;;;;;4882738;29;20123;-35
2023/07/25 12:13:54;;;;;;;1.90;0.82;;;25.40;64.30;;;;;;4880802;29;20063;-35
2023/07/25 12:16:27;;;;;;;1.85;0.85;;;25.30;65.80;;;;;;4899443;29;20087;-35
2023/07/25 12:19:21;;;;;;;2.03;0.88;;;25.50;63.50;;;;;;4885746;29;20353;-35
2023/07/25 12:21:47;;;;;;;1.65;0.63;;;25.60;63.90;;;;;;4899147;29;20049;-35
2023/07/25 12:24:14;;;;;;;0.80;0.70;;;25.80;62.10;;;;;;4898410;29;20032;-35
2023/07/25 12:26:58;;;;;;;1.67;0.63;;;25.70;61.80;;;;;;4878981;29;20522;-35
2023/07/25 12:29:24;;;;;;;3.67;0.90;;;25.20;61.90;;;;;;4889305;29;20047;-34
2023/07/25 12:31:53;;;;;;;2.97;0.90;;;24.80;63.70;;;;;;4897007;29;20037;-35
2023/07/25 12:34:20;;;;;;;3.63;0.80;;;24.20;63.90;;;;;;4883758;29;20076;-34
2023/07/25 12:36:47;;;;;;;2.53;0.93;;;24.30;65.60;;;;;;4895772;29;20680;-34
2023/07/25 12:39:13;;;;;;;2.55;0.82;;;24.70;66.10;;;;;;4892138;29;20037;-35
2023/07/25 12:41:39;;;;;;;2.83;0.98;;;24.70;65.20;;;;;;4890514;29;20056;-34
2023/07/25 12:44:05;;;;;;;3.92;0.80;;;24.60;65.50;;;;;;4896278;29;20138;-35